Time,TemperatureF,DewpointF,PressureIn,WindDirection,WindDirectionDegrees,WindSpeedMPH,WindSpeedGustMPH,Humidity,HourlyPrecipIn,Conditions,Clouds,dailyrainin,SoftwareType,DateUTC
2013-06-22 06:13:00,56.9,56.3,30.29,NW,319,0.0,1.0,98,0.00,,,0.00,Wunderground v.1.15,2013-06-22 10:13:00,
2013-06-22 06:14:00,56.9,56.3,30.29,NW,319,0.0,1.0,98,0.00,,,0.00,Wunderground v.1.15,2013-06-22 10:14:00,
2013-06-22 06:16:00,56.8,56.2,30.29,NW,319,0.0,1.0,98,0.00,,,0.00,Wunderground v.1.15,2013-06-22 10:16:00,
2013-06-22 06:22:00,56.7,56.1,30.29,NW,319,0.0,1.0,98,0.00,,,0.00,Wunderground v.1.15,2013-06-22 10:22:00,
2013-06-22 06:27:00,56.6,56.0,30.30,NW,319,0.0,1.0,98,0.00,,,0.00,Wunderground v.1.15,2013-06-22 10:27:00,
2013-06-22 06:31:00,56.6,56.0,30.30,NW,319,0.0,1.0,98,0.00,,,0.00,Wunderground v.1.15,2013-06-22 10:31:00,
2013-06-22 06:36:00,56.6,56.0,30.29,NW,319,0.0,1.0,98,0.00,,,0.00,Wunderground v.1.15,2013-06-22 10:36:00,
2013-06-22 06:41:00,56.4,55.8,30.30,NW,319,0.0,1.0,98,0.00,,,0.00,Wunderground v.1.15,2013-06-22 10:41:00,
2013-06-22 06:46:00,56.4,55.8,30.29,NW,319,0.0,1.0,98,0.00,,,0.00,Wunderground v.1.15,2013-06-22 10:46:00,
2013-06-22 06:52:00,56.4,56.1,30.30,NW,319,0.0,1.0,99,0.00,,,0.00,Wunderground v.1.15,2013-06-22 10:52:00,
2013-06-22 06:57:00,56.4,56.1,30.29,NW,319,0.0,1.0,99,0.00,,,0.00,Wunderground v.1.15,2013-06-22 10:57:00,
2013-06-22 07:02:00,56.3,55.7,30.29,NW,319,0.0,1.0,98,0.00,,,0.00,Wunderground v.1.15,2013-06-22 11:02:00,
2013-06-22 07:08:00,56.5,56.2,30.29,NW,319,0.0,1.0,99,0.00,,,0.00,Wunderground v.1.15,2013-06-22 11:08:00,
2013-06-22 07:13:00,57.0,56.7,30.29,NW,319,1.0,1.0,99,0.00,,,0.00,Wunderground v.1.15,2013-06-22 11:13:00,
2013-06-22 07:19:00,57.6,57.3,30.29,NNE,13,1.0,2.0,99,0.00,,,0.00,Wunderground v.1.15,2013-06-22 11:19:00,
2013-06-22 07:25:00,58.1,57.8,30.29,East,88,1.0,2.0,99,0.00,,,0.00,Wunderground v.1.15,2013-06-22 11:25:00,
2013-06-22 07:31:00,58.8,58.5,30.29,East,88,1.0,1.0,99,0.00,,,0.00,Wunderground v.1.15,2013-06-22 11:31:00,
2013-06-22 07:36:00,59.3,59.0,30.28,WNW,299,1.0,4.0,99,0.00,,,0.00,Wunderground v.1.15,2013-06-22 11:36:00,
2013-06-22 07:41:00,59.0,58.4,30.29,WNW,297,2.0,2.0,98,0.00,,,0.00,Wunderground v.1.15,2013-06-22 11:41:00,
2013-06-22 07:47:00,59.3,58.7,30.28,WNW,297,2.0,2.0,98,0.00,,,0.00,Wunderground v.1.15,2013-06-22 11:47:00,
2013-06-22 07:52:00,60.2,59.9,30.29,WNW,297,0.0,1.0,99,0.00,,,0.00,Wunderground v.1.15,2013-06-22 11:52:00,
2013-06-22 07:57:00,61.0,60.4,30.29,WNW,298,1.0,2.0,98,0.00,,,0.00,Wunderground v.1.15,2013-06-22 11:57:00,
2013-06-22 17:24:00,77.6,62.1,30.20,SSE,157,4.0,7.0,59,0.00,,,0.00,Wunderground v.1.15,2013-06-22 21:24:00,
2013-06-22 17:30:00,77.5,61.6,30.20,South,169,5.0,7.0,58,0.00,,,0.00,Wunderground v.1.15,2013-06-22 21:30:00,
2013-06-22 17:36:00,77.3,62.3,30.20,SSE,148,5.0,7.0,60,0.00,,,0.00,Wunderground v.1.15,2013-06-22 21:36:00,
2013-06-22 17:41:00,77.2,61.8,30.20,ESE,102,6.0,9.0,59,0.00,,,0.00,Wunderground v.1.15,2013-06-22 21:41:00,
2013-06-22 17:47:00,77.3,61.4,30.19,East,80,5.0,7.0,58,0.00,,,0.00,Wunderground v.1.15,2013-06-22 21:47:00,
2013-06-22 17:52:00,77.3,61.9,30.19,East,97,5.0,7.0,59,0.00,,,0.00,Wunderground v.1.15,2013-06-22 21:52:00,
2013-06-22 17:57:00,77.2,62.2,30.19,SSE,163,5.0,5.0,60,0.00,,,0.00,Wunderground v.1.15,2013-06-22 21:57:00,